Terminal Aerodrome Forecast
Issued by NWS Upton, NY

Home | Current Version | Previous Version | Text Only | Print | Product List | Glossary On
Versions: 1 2 3 4 5 6 7 8 9 10 11 12 13 14 15 16 17 18 19 20 21 22 23 24 25 26 27 28 29 30 31 32 33 34 35 36 37
000
FTUS41 KOKX 241323 AAA
TAFBDR
TAF AMD
KBDR 241323Z 2413/2512 VRB05KT P6SM OVC080
     FM241600 07009KT P6SM FEW035 OVC080
     FM242000 11009KT P6SM FEW040 OVC100
     FM250300 07008KT P6SM BKN020 OVC040
     FM250800 08010KT 6SM -RA BR BKN007 OVC020=

USA.gov is the U.S. government's official web portal to all federal, state and local government web resources and services.